Time;durP1;ratioP1;P1;durP2;ratioP2;P2;SDS_P1;SDS_P2;PMS_P1;PMS_P2;Temp;Humidity;BMP_temperature;BMP_pressure;BME280_temperature;BME280_humidity;BME280_pressure;Samples;Min_cycle;Max_cycle;Signal;HPM_P1;HPM_P2
2022/03/19 00:01:43;;;;;;;2.47;1.17;;;6.00;65.00;;;;;;5057512;28;20051;-65
2022/03/19 00:04:10;;;;;;;3.42;1.20;;;6.00;65.30;;;;;;5060329;28;20111;-65
2022/03/19 00:06:39;;;;;;;3.50;1.17;;;6.00;65.10;;;;;;5058196;28;20072;-64
2022/03/19 00:09:08;;;;;;;3.15;1.38;;;5.90;65.10;;;;;;5061248;28;20044;-62
2022/03/19 00:11:36;;;;;;;3.33;0.98;;;5.90;65.20;;;;;;5059482;28;20159;-65
2022/03/19 00:14:03;;;;;;;2.17;0.98;;;5.80;65.40;;;;;;5056347;28;20121;-64
2022/03/19 00:16:30;;;;;;;2.67;1.13;;;5.80;65.40;;;;;;5062362;28;20053;-63
2022/03/19 00:18:59;;;;;;;5.53;1.50;;;5.80;65.50;;;;;;5059952;28;20394;-64
2022/03/19 00:21:26;;;;;;;3.80;1.13;;;5.80;65.60;;;;;;5058066;28;20172;-63
2022/03/19 00:23:54;;;;;;;4.25;0.95;;;5.70;65.80;;;;;;5063970;28;20045;-63
2022/03/19 00:26:21;;;;;;;5.15;1.45;;;5.70;65.90;;;;;;5050920;28;20036;-65
2022/03/19 00:28:48;;;;;;;2.83;1.00;;;5.70;66.00;;;;;;5062173;28;20041;-64
2022/03/19 00:31:15;;;;;;;4.32;1.23;;;5.70;66.00;;;;;;5041031;28;20596;-64
2022/03/19 00:33:42;;;;;;;4.00;1.25;;;5.60;66.10;;;;;;5056953;28;20049;-63
2022/03/19 00:36:10;;;;;;;4.68;1.23;;;5.60;66.10;;;;;;5055698;28;20405;-63
2022/03/19 00:38:37;;;;;;;5.07;1.75;;;5.60;66.00;;;;;;5057473;28;20508;-63
2022/03/19 00:41:04;;;;;;;3.55;1.45;;;5.50;66.10;;;;;;5033897;28;20171;-62
2022/03/19 00:43:31;;;;;;;5.68;1.17;;;5.60;66.10;;;;;;5055952;28;20157;-63
2022/03/19 00:45:58;;;;;;;2.95;1.40;;;5.50;66.00;;;;;;5059816;28;20111;-63
2022/03/19 00:48:25;;;;;;;3.03;1.33;;;5.50;66.20;;;;;;5058141;28;20466;-63
2022/03/19 00:50:52;;;;;;;5.03;1.10;;;5.50;66.20;;;;;;5060748;28;20077;-63
2022/03/19 00:53:20;;;;;;;1.75;0.80;;;5.50;66.10;;;;;;5061818;28;20040;-63
2022/03/19 00:55:47;;;;;;;2.83;1.17;;;5.40;66.30;;;;;;5057239;28;20056;-63
2022/03/19 00:58:14;;;;;;;6.03;1.67;;;5.40;66.30;;;;;;5056236;28;20037;-63
2022/03/19 01:00:41;;;;;;;3.35;0.98;;;5.30;66.40;;;;;;5057899;28;20097;-63
2022/03/19 01:03:08;;;;;;;3.50;1.52;;;5.30;66.50;;;;;;5057318;28;20474;-65
2022/03/19 01:05:35;;;;;;;2.03;0.93;;;5.30;66.50;;;;;;5059048;28;20148;-63
2022/03/19 01:08:02;;;;;;;3.42;0.93;;;5.30;66.70;;;;;;5051214;28;20589;-63
2022/03/19 01:10:31;;;;;;;3.22;0.95;;;5.20;66.90;;;;;;5062134;28;20144;-64
2022/03/19 01:12:59;;;;;;;4.03;1.05;;;5.20;67.00;;;;;;5059984;28;20070;-63
2022/03/19 01:15:26;;;;;;;2.10;0.77;;;5.20;67.00;;;;;;5056731;28;20882;-64
2022/03/19 01:17:53;;;;;;;1.98;0.90;;;5.20;67.20;;;;;;5061599;28;20044;-65
2022/03/19 01:20:21;;;;;;;3.60;1.15;;;5.20;67.20;;;;;;5058659;28;20740;-62
2022/03/19 01:22:50;;;;;;;2.92;1.10;;;5.10;67.20;;;;;;5058554;28;20037;-64
2022/03/19 01:25:19;;;;;;;4.03;0.98;;;5.00;67.40;;;;;;5051928;28;20508;-63
2022/03/19 01:27:49;;;;;;;3.25;0.65;;;5.00;67.60;;;;;;5048668;28;20049;-65
2022/03/19 01:30:18;;;;;;;3.05;1.00;;;5.00;67.70;;;;;;5061236;28;20445;-64
2022/03/19 01:32:46;;;;;;;1.90;0.93;;;5.00;67.60;;;;;;5062335;28;20057;-62
2022/03/19 01:35:15;;;;;;;2.33;0.65;;;4.90;67.60;;;;;;5069863;28;20040;-65
2022/03/19 01:37:43;;;;;;;3.78;1.00;;;4.90;67.60;;;;;;5068705;28;20397;-64
2022/03/19 01:40:11;;;;;;;2.40;0.80;;;4.90;67.70;;;;;;5069014;28;20067;-64
2022/03/19 01:42:42;;;;;;;2.97;0.80;;;4.80;68.00;;;;;;5069305;28;20098;-63
2022/03/19 01:45:13;;;;;;;3.05;0.80;;;4.80;67.90;;;;;;5061192;28;20035;-64
2022/03/19 01:47:41;;;;;;;2.92;0.80;;;4.80;68.10;;;;;;5062737;28;20119;-63
2022/03/19 01:50:10;;;;;;;0.85;0.68;;;4.70;68.10;;;;;;5060951;28;20078;-64
2022/03/19 01:52:37;;;;;;;1.90;0.90;;;4.70;68.30;;;;;;5063268;28;20125;-64
2022/03/19 01:55:06;;;;;;;1.95;1.15;;;4.70;68.30;;;;;;5055921;28;20135;-63
2022/03/19 01:57:37;;;;;;;3.42;1.10;;;4.70;68.30;;;;;;5067317;28;20478;-66
2022/03/19 02:00:08;;;;;;;3.13;0.88;;;4.70;68.30;;;;;;5066309;28;20045;-66
2022/03/19 02:02:44;;;;;;;2.08;1.02;;;4.60;68.50;;;;;;5069881;28;20053;-64
2022/03/19 02:05:14;;;;;;;3.05;1.05;;;4.60;68.50;;;;;;5059799;28;21048;-63
2022/03/19 02:07:41;;;;;;;2.65;0.90;;;4.60;68.70;;;;;;5074622;28;20056;-63
2022/03/19 02:10:09;;;;;;;3.95;1.02;;;4.60;68.60;;;;;;5078902;28;20509;-63
2022/03/19 02:12:36;;;;;;;6.18;1.23;;;4.50;68.70;;;;;;5074303;28;20040;-64
2022/03/19 02:15:04;;;;;;;2.70;1.23;;;4.60;68.60;;;;;;5070246;28;20036;-64
2022/03/19 02:17:31;;;;;;;1.45;0.82;;;4.50;68.60;;;;;;5069410;28;20056;-64
2022/03/19 02:20:02;;;;;;;3.00;1.33;;;4.50;68.60;;;;;;5069738;28;20044;-64
2022/03/19 02:22:31;;;;;;;3.95;1.17;;;4.50;68.70;;;;;;5071843;28;20052;-64
2022/03/19 02:27:45;;;;;;;5.28;1.60;;;4.40;68.80;;;;;;5078006;28;20070;-63
2022/03/19 02:30:14;;;;;;;5.70;1.77;;;4.40;68.80;;;;;;5071563;28;20032;-63
2022/03/19 02:32:43;;;;;;;4.95;1.90;;;4.40;68.90;;;;;;5066085;28;20124;-63
2022/03/19 02:35:12;;;;;;;5.22;1.73;;;4.30;69.10;;;;;;5065461;28;20047;-63
2022/03/19 02:37:40;;;;;;;4.10;1.50;;;4.30;69.10;;;;;;5072486;28;20036;-64
2022/03/19 02:40:11;;;;;;;3.47;1.08;;;4.30;69.10;;;;;;5067928;28;21007;-63
2022/03/19 02:42:39;;;;;;;3.75;1.55;;;4.30;69.10;;;;;;5069874;28;20497;-63
2022/03/19 02:45:07;;;;;;;3.28;1.85;;;4.20;69.10;;;;;;5070903;28;20071;-63
2022/03/19 02:47:56;;;;;;;4.57;1.17;;;4.20;69.10;;;;;;5071613;28;20071;-64
2022/03/19 02:50:22;;;;;;;6.60;1.83;;;4.20;69.30;;;;;;5070968;28;20044;-63
2022/03/19 02:52:49;;;;;;;6.05;1.70;;;4.20;69.40;;;;;;5072214;28;20045;-63
2022/03/19 02:55:17;;;;;;;3.58;1.05;;;4.20;69.50;;;;;;5069788;28;20040;-66
2022/03/19 02:57:44;;;;;;;4.43;1.40;;;4.10;69.50;;;;;;5074207;28;20051;-63
2022/03/19 03:00:12;;;;;;;5.88;1.33;;;4.10;69.60;;;;;;5069408;28;20155;-64
2022/03/19 03:02:39;;;;;;;6.93;1.83;;;4.10;69.70;;;;;;5070563;28;20474;-65
2022/03/19 03:05:07;;;;;;;3.58;1.65;;;4.00;69.70;;;;;;5071478;28;20037;-64
2022/03/19 03:07:34;;;;;;;4.07;1.45;;;4.10;69.70;;;;;;5077817;28;20127;-64
2022/03/19 03:10:01;;;;;;;6.07;1.98;;;4.10;69.60;;;;;;5071778;28;20036;-64
2022/03/19 03:12:29;;;;;;;6.88;1.77;;;4.00;69.60;;;;;;5062941;28;20120;-64
2022/03/19 03:14:56;;;;;;;3.55;1.05;;;4.00;69.70;;;;;;5060897;28;20055;-65
2022/03/19 03:17:24;;;;;;;4.47;1.48;;;3.90;69.70;;;;;;5058011;28;20036;-65
2022/03/19 03:19:52;;;;;;;5.80;1.45;;;3.90;69.90;;;;;;5060864;28;20150;-64
2022/03/19 03:22:19;;;;;;;7.75;1.45;;;3.90;70.10;;;;;;5071430;28;20072;-64
2022/03/19 03:24:46;;;;;;;2.80;1.50;;;3.90;70.10;;;;;;5064932;28;20076;-65
2022/03/19 03:27:13;;;;;;;6.00;1.52;;;3.80;70.10;;;;;;5069518;28;20052;-64
2022/03/19 03:29:41;;;;;;;4.60;1.15;;;3.80;70.20;;;;;;5067859;28;20440;-64
2022/03/19 03:32:10;;;;;;;4.05;1.48;;;3.80;70.30;;;;;;5065435;28;20048;-63
2022/03/19 03:34:37;;;;;;;3.00;1.40;;;3.80;70.20;;;;;;5067073;28;22027;-64
2022/03/19 03:37:04;;;;;;;3.17;1.27;;;3.80;70.10;;;;;;5062830;28;20439;-66
2022/03/19 03:39:32;;;;;;;4.32;1.33;;;3.80;70.30;;;;;;5062662;28;20052;-65
2022/03/19 03:41:59;;;;;;;3.25;1.27;;;3.70;70.30;;;;;;5065930;28;20097;-65
2022/03/19 03:44:26;;;;;;;6.13;1.95;;;3.70;70.30;;;;;;5063541;28;20144;-63
2022/03/19 03:46:54;;;;;;;3.30;1.10;;;3.70;70.40;;;;;;5066862;28;20139;-63
2022/03/19 03:49:21;;;;;;;5.15;1.40;;;3.70;70.50;;;;;;5072315;28;20113;-64
2022/03/19 03:51:48;;;;;;;3.83;1.35;;;3.70;70.60;;;;;;5068191;28;20043;-63
2022/03/19 03:54:15;;;;;;;5.55;1.42;;;3.70;70.70;;;;;;5068659;28;20062;-63
2022/03/19 03:56:42;;;;;;;3.58;1.35;;;3.60;70.60;;;;;;5069965;28;20040;-63
2022/03/19 03:59:09;;;;;;;3.67;1.63;;;3.70;70.70;;;;;;5068908;28;20090;-63
2022/03/19 04:01:36;;;;;;;3.78;1.73;;;3.60;70.80;;;;;;5070670;28;20056;-64
2022/03/19 04:04:05;;;;;;;3.17;1.30;;;3.60;70.80;;;;;;5069718;28;20040;-63
2022/03/19 04:06:32;;;;;;;5.22;1.52;;;3.70;70.70;;;;;;5071947;28;20040;-63
2022/03/19 04:08:59;;;;;;;3.75;1.40;;;3.60;70.80;;;;;;5049863;28;20115;-64
2022/03/19 04:11:26;;;;;;;3.88;1.42;;;3.60;71.00;;;;;;5068819;28;20053;-62
2022/03/19 04:13:52;;;;;;;6.32;2.05;;;3.60;70.90;;;;;;5067714;28;20119;-63
2022/03/19 04:16:19;;;;;;;4.82;1.48;;;3.60;71.00;;;;;;5066002;28;20119;-63
2022/03/19 04:18:46;;;;;;;3.63;1.30;;;3.50;71.10;;;;;;5071794;28;20427;-64
2022/03/19 04:21:15;;;;;;;3.80;0.93;;;3.60;71.10;;;;;;5067910;28;20123;-65
2022/03/19 04:23:42;;;;;;;4.47;1.50;;;3.50;71.10;;;;;;5070377;28;20094;-63
2022/03/19 04:26:09;;;;;;;3.65;1.10;;;3.40;71.20;;;;;;5079573;28;20048;-63
2022/03/19 04:28:35;;;;;;;2.72;1.00;;;3.40;71.40;;;;;;5077373;28;20048;-64
2022/03/19 04:31:02;;;;;;;4.38;1.55;;;3.40;71.40;;;;;;5078281;28;20036;-64
2022/03/19 04:33:29;;;;;;;5.45;1.75;;;3.40;71.50;;;;;;5066950;28;20048;-62
2022/03/19 04:38:43;;;;;;;2.25;0.98;;;3.40;71.50;;;;;;5063123;28;21192;-64
2022/03/19 04:41:12;;;;;;;6.57;1.55;;;3.40;71.60;;;;;;5067396;28;20504;-63
2022/03/19 04:43:40;;;;;;;3.50;1.70;;;3.40;71.40;;;;;;5071473;28;20128;-63
2022/03/19 04:46:07;;;;;;;4.18;1.40;;;3.40;71.40;;;;;;5068608;28;20388;-63
2022/03/19 04:48:34;;;;;;;2.97;1.25;;;3.40;71.60;;;;;;5067856;28;20041;-64
2022/03/19 04:51:01;;;;;;;6.70;2.55;;;3.30;71.80;;;;;;5066610;28;20477;-64
2022/03/19 04:53:28;;;;;;;5.93;1.10;;;3.30;71.90;;;;;;5066033;28;20052;-65
2022/03/19 04:55:57;;;;;;;5.40;2.03;;;3.30;72.00;;;;;;5065135;28;20044;-64
2022/03/19 04:58:24;;;;;;;2.70;1.23;;;3.30;72.00;;;;;;5065889;28;20159;-64
2022/03/19 05:00:51;;;;;;;6.63;1.58;;;3.30;71.70;;;;;;5053703;28;20139;-65
2022/03/19 05:03:18;;;;;;;4.03;1.23;;;3.30;72.00;;;;;;5073090;28;20051;-65
2022/03/19 05:05:45;;;;;;;6.60;2.17;;;3.30;72.00;;;;;;5072578;28;20038;-64
2022/03/19 05:08:12;;;;;;;2.38;0.90;;;3.30;72.10;;;;;;5072516;28;20043;-64
2022/03/19 05:13:25;;;;;;;5.80;1.42;;;3.20;72.20;;;;;;5068046;28;20454;-64
2022/03/19 05:15:52;;;;;;;4.93;1.13;;;3.20;72.00;;;;;;5074404;28;20497;-63
2022/03/19 05:18:19;;;;;;;4.07;1.23;;;3.20;72.10;;;;;;5076420;28;20060;-65
2022/03/19 05:20:47;;;;;;;4.10;1.30;;;3.20;72.20;;;;;;5074915;28;20046;-63
2022/03/19 05:23:14;;;;;;;4.03;1.15;;;3.10;72.30;;;;;;5073385;28;20036;-63
2022/03/19 05:25:41;;;;;;;3.00;0.98;;;3.10;72.40;;;;;;5074950;28;20082;-65
2022/03/19 05:28:08;;;;;;;3.35;1.40;;;3.10;72.30;;;;;;5074506;28;20044;-64
2022/03/19 05:30:38;;;;;;;4.53;2.10;;;3.10;72.30;;;;;;5076608;28;20040;-63
2022/03/19 05:33:06;;;;;;;3.42;1.42;;;3.10;72.30;;;;;;5073046;28;20044;-64
2022/03/19 05:35:34;;;;;;;3.60;1.40;;;3.10;72.40;;;;;;5077796;28;20040;-64
2022/03/19 05:38:01;;;;;;;4.80;1.85;;;3.10;72.30;;;;;;5073048;28;20044;-63
2022/03/19 05:40:29;;;;;;;4.18;1.33;;;3.00;72.50;;;;;;5074002;28;20044;-64
2022/03/19 05:42:56;;;;;;;4.05;1.63;;;3.10;72.30;;;;;;5075251;28;20098;-63
2022/03/19 05:45:23;;;;;;;4.82;1.90;;;3.00;72.40;;;;;;5069864;28;20075;-64
2022/03/19 05:47:52;;;;;;;3.53;1.23;;;3.00;72.40;;;;;;5069098;28;20052;-63
2022/03/19 05:50:19;;;;;;;2.97;1.13;;;3.10;72.40;;;;;;5074205;28;20052;-63
2022/03/19 05:52:47;;;;;;;2.47;1.10;;;3.00;72.60;;;;;;5071144;28;20129;-64
2022/03/19 05:55:15;;;;;;;4.40;1.25;;;3.00;72.60;;;;;;5071926;28;20072;-62
2022/03/19 05:57:42;;;;;;;2.30;1.05;;;3.00;72.50;;;;;;5069578;28;20048;-63
2022/03/19 06:00:11;;;;;;;3.33;1.40;;;3.00;72.50;;;;;;5069387;28;20055;-64
2022/03/19 06:02:42;;;;;;;3.38;1.42;;;3.10;72.60;;;;;;5065506;28;20052;-63
2022/03/19 06:05:12;;;;;;;3.63;1.40;;;3.00;72.70;;;;;;5064402;28;20150;-63
2022/03/19 06:07:40;;;;;;;4.88;1.65;;;3.00;72.80;;;;;;5062199;28;20119;-63
2022/03/19 06:10:08;;;;;;;4.22;1.80;;;3.00;72.90;;;;;;5071494;28;20041;-63
2022/03/19 06:12:36;;;;;;;3.20;1.55;;;3.00;73.00;;;;;;5073437;28;20098;-64
2022/03/19 06:15:03;;;;;;;5.68;1.67;;;3.00;73.20;;;;;;5064612;28;20124;-63
2022/03/19 06:17:30;;;;;;;3.97;1.58;;;3.00;73.30;;;;;;5070058;28;20044;-63
2022/03/19 06:19:57;;;;;;;3.17;1.52;;;3.00;73.50;;;;;;5064950;28;20040;-64
2022/03/19 06:22:25;;;;;;;1.63;0.93;;;3.00;73.50;;;;;;5071096;28;20090;-64
2022/03/19 06:24:52;;;;;;;7.32;1.25;;;3.00;73.40;;;;;;5071572;28;20049;-64
2022/03/19 06:27:19;;;;;;;3.58;1.35;;;3.10;73.50;;;;;;5078215;28;20056;-66
2022/03/19 06:29:46;;;;;;;4.32;1.52;;;3.10;73.80;;;;;;5073896;28;20039;-66
2022/03/19 06:32:14;;;;;;;3.53;1.90;;;3.20;73.80;;;;;;5071007;28;20074;-66
2022/03/19 06:34:42;;;;;;;2.80;1.40;;;3.20;74.00;;;;;;5069273;28;20037;-65
2022/03/19 06:37:19;;;;;;;4.43;1.75;;;3.20;74.10;;;;;;5064671;28;20039;-65
2022/03/19 06:39:49;;;;;;;3.55;1.17;;;3.30;74.20;;;;;;5058671;28;20145;-65
2022/03/19 06:42:16;;;;;;;5.13;1.70;;;3.40;74.20;;;;;;5048918;28;20444;-63
2022/03/19 06:44:43;;;;;;;6.50;1.65;;;3.40;74.20;;;;;;5064835;28;20056;-66
2022/03/19 06:47:10;;;;;;;4.03;1.75;;;3.50;74.30;;;;;;5062073;28;20121;-65
2022/03/19 06:49:38;;;;;;;5.75;2.00;;;3.60;74.50;;;;;;5062127;28;20119;-64
2022/03/19 06:52:05;;;;;;;5.75;1.50;;;3.70;74.50;;;;;;5066347;28;20489;-65
2022/03/19 06:54:33;;;;;;;5.47;1.65;;;3.70;74.50;;;;;;5060874;28;20053;-65
2022/03/19 06:57:01;;;;;;;4.22;1.67;;;3.80;74.40;;;;;;5059156;28;20042;-64
2022/03/19 06:59:28;;;;;;;2.55;1.23;;;3.90;74.50;;;;;;5059308;28;20784;-64
2022/03/19 07:01:55;;;;;;;2.50;1.38;;;3.90;74.50;;;;;;5060610;28;20039;-66
2022/03/19 07:04:23;;;;;;;3.80;1.13;;;4.00;74.50;;;;;;5072394;28;20047;-64
2022/03/19 07:06:50;;;;;;;4.32;1.15;;;4.10;74.50;;;;;;5065177;28;20049;-63
2022/03/19 07:09:17;;;;;;;3.38;1.27;;;4.20;74.30;;;;;;5060151;28;21285;-63
2022/03/19 07:11:46;;;;;;;4.97;1.42;;;4.20;74.10;;;;;;5063171;28;20494;-64
2022/03/19 07:14:15;;;;;;;2.53;0.95;;;4.30;73.80;;;;;;5059556;28;20040;-63
2022/03/19 07:16:44;;;;;;;3.50;1.58;;;4.40;73.60;;;;;;5061310;28;20071;-63
2022/03/19 07:19:12;;;;;;;3.72;1.20;;;4.40;73.40;;;;;;5062686;28;21095;-63
2022/03/19 07:21:40;;;;;;;4.60;1.40;;;4.50;73.30;;;;;;5065824;28;20053;-63
2022/03/19 07:24:07;;;;;;;5.22;1.58;;;4.50;73.30;;;;;;5061908;28;20033;-63
2022/03/19 07:26:36;;;;;;;5.45;1.27;;;4.60;72.80;;;;;;5061401;28;20041;-64
2022/03/19 07:29:05;;;;;;;8.93;1.85;;;4.70;72.80;;;;;;5066648;28;20046;-63
2022/03/19 07:31:33;;;;;;;4.18;1.60;;;4.70;72.60;;;;;;5065994;28;20404;-63
2022/03/19 07:34:01;;;;;;;3.63;1.70;;;4.80;72.70;;;;;;5064630;28;20541;-64
2022/03/19 07:36:28;;;;;;;2.90;1.88;;;4.80;73.00;;;;;;5062643;28;20485;-63
2022/03/19 07:38:57;;;;;;;4.38;1.70;;;4.90;73.00;;;;;;5063944;28;20406;-65
2022/03/19 07:44:09;;;;;;;5.15;2.10;;;5.00;73.00;;;;;;5063829;28;20040;-63
2022/03/19 07:46:37;;;;;;;4.88;1.58;;;5.10;73.40;;;;;;5068267;28;20068;-65
2022/03/19 07:49:05;;;;;;;3.38;1.58;;;5.10;73.60;;;;;;5068653;28;20048;-64
2022/03/19 07:51:32;;;;;;;5.75;1.30;;;5.20;74.00;;;;;;5068992;28;20489;-63
2022/03/19 07:53:59;;;;;;;7.90;3.17;;;5.30;73.90;;;;;;5072694;28;20128;-64
2022/03/19 07:56:26;;;;;;;5.40;2.05;;;5.40;74.00;;;;;;5072494;28;20113;-63
2022/03/19 07:58:54;;;;;;;7.28;1.73;;;5.60;73.80;;;;;;5069443;28;20124;-63
2022/03/19 08:01:21;;;;;;;5.22;1.55;;;5.70;74.10;;;;;;5066284;28;20662;-62
2022/03/19 08:03:50;;;;;;;5.53;2.70;;;5.70;74.10;;;;;;5066627;28;20396;-63
2022/03/19 08:06:17;;;;;;;4.15;1.80;;;5.90;74.40;;;;;;5070201;28;20078;-65
2022/03/19 08:08:44;;;;;;;5.03;1.77;;;6.10;74.30;;;;;;5072288;28;20040;-64
2022/03/19 08:11:11;;;;;;;3.03;1.35;;;6.20;74.10;;;;;;5073663;28;20119;-66
2022/03/19 08:13:39;;;;;;;7.68;1.88;;;6.20;73.90;;;;;;5069034;28;20405;-64
2022/03/19 08:16:06;;;;;;;6.28;1.63;;;6.40;73.50;;;;;;5074000;28;20115;-63
2022/03/19 08:18:34;;;;;;;8.07;2.28;;;6.50;73.30;;;;;;5073995;28;20036;-64
2022/03/19 08:21:02;;;;;;;8.30;2.35;;;6.60;73.10;;;;;;5069361;28;20098;-64
2022/03/19 08:23:29;;;;;;;6.97;1.77;;;6.80;72.60;;;;;;5073660;28;20037;-65
2022/03/19 08:25:56;;;;;;;11.50;2.75;;;6.90;72.10;;;;;;5065841;28;20036;-64
2022/03/19 08:28:23;;;;;;;7.05;2.33;;;7.00;71.80;;;;;;5069906;28;20118;-64
2022/03/19 08:30:51;;;;;;;5.57;2.67;;;7.10;71.30;;;;;;5069508;28;20077;-64
2022/03/19 08:33:18;;;;;;;8.93;3.30;;;7.10;71.00;;;;;;5067793;28;20161;-64
2022/03/19 08:35:45;;;;;;;6.97;2.47;;;7.30;70.60;;;;;;5065248;28;20380;-64
2022/03/19 08:40:58;;;;;;;6.63;2.70;;;7.50;70.40;;;;;;5069785;28;20047;-64
2022/03/19 08:43:25;;;;;;;4.95;2.40;;;7.70;70.20;;;;;;5067957;28;20041;-63
2022/03/19 08:45:52;;;;;;;5.85;3.10;;;7.70;70.00;;;;;;5066502;28;20071;-65
2022/03/19 08:48:19;;;;;;;5.07;2.30;;;7.80;69.50;;;;;;5062430;28;20119;-63
2022/03/19 08:50:46;;;;;;;6.97;3.05;;;8.00;69.30;;;;;;5059439;28;20074;-63
2022/03/19 08:53:15;;;;;;;7.20;2.78;;;8.10;69.00;;;;;;5059628;28;20040;-63
2022/03/19 08:55:43;;;;;;;7.43;2.35;;;8.20;68.60;;;;;;5063498;28;20036;-64
2022/03/19 08:58:10;;;;;;;6.18;2.63;;;8.40;68.30;;;;;;5063209;28;20117;-64
2022/03/19 09:00:40;;;;;;;7.25;2.80;;;8.50;67.70;;;;;;5060115;28;20055;-65
2022/03/19 09:03:07;;;;;;;6.60;2.92;;;8.50;68.30;;;;;;5063181;28;20047;-65
2022/03/19 09:05:34;;;;;;;6.32;3.10;;;8.60;67.50;;;;;;5064281;28;20055;-63
2022/03/19 09:08:01;;;;;;;8.40;2.35;;;8.70;67.00;;;;;;5060210;28;20036;-65
2022/03/19 09:10:30;;;;;;;7.15;3.28;;;8.80;65.80;;;;;;5063429;28;20482;-63
2022/03/19 09:12:57;;;;;;;6.05;2.45;;;8.90;65.30;;;;;;5062783;28;20522;-65
2022/03/19 09:15:24;;;;;;;7.35;2.80;;;9.00;65.50;;;;;;5061763;28;20119;-63
2022/03/19 09:17:51;;;;;;;4.78;2.15;;;9.00;65.80;;;;;;5063443;28;20059;-66
2022/03/19 09:20:18;;;;;;;3.60;1.92;;;9.10;65.20;;;;;;5060903;28;20125;-64
2022/03/19 09:22:45;;;;;;;6.05;2.53;;;9.20;65.00;;;;;;5061458;28;20037;-64
2022/03/19 09:25:12;;;;;;;8.43;3.00;;;9.20;65.00;;;;;;5064452;28;20046;-64
2022/03/19 09:27:40;;;;;;;4.30;1.85;;;9.40;64.10;;;;;;5062267;28;20044;-64
2022/03/19 09:30:08;;;;;;;3.78;2.10;;;9.40;64.20;;;;;;5071075;28;20497;-65
2022/03/19 09:32:36;;;;;;;5.30;2.25;;;9.50;62.80;;;;;;5075484;28;20094;-65
2022/03/19 09:35:04;;;;;;;5.30;2.05;;;9.70;62.50;;;;;;5071753;28;20037;-64
2022/03/19 09:37:31;;;;;;;4.30;2.00;;;9.70;62.70;;;;;;5066448;28;20108;-65
2022/03/19 09:39:59;;;;;;;6.65;2.55;;;9.70;61.90;;;;;;5046396;28;20045;-63
2022/03/19 09:42:27;;;;;;;5.05;2.47;;;9.80;62.40;;;;;;5066285;28;20493;-64
2022/03/19 09:44:56;;;;;;;6.18;2.08;;;9.80;62.20;;;;;;5062430;28;20048;-65
2022/03/19 09:47:25;;;;;;;10.35;2.83;;;9.90;61.80;;;;;;5040647;28;20490;-65
2022/03/19 09:49:52;;;;;;;6.03;1.73;;;10.00;61.30;;;;;;5049725;28;20068;-63
2022/03/19 09:52:21;;;;;;;7.63;2.20;;;10.10;60.60;;;;;;5047361;28;20057;-65
2022/03/19 09:54:48;;;;;;;4.20;2.22;;;10.10;60.20;;;;;;5050565;28;20137;-65
2022/03/19 09:57:15;;;;;;;6.57;1.48;;;10.20;58.90;;;;;;5052280;28;20140;-63
2022/03/19 09:59:42;;;;;;;4.40;1.40;;;10.20;56.90;;;;;;5050506;28;20041;-65
2022/03/19 10:02:11;;;;;;;5.90;1.48;;;10.30;55.30;;;;;;5051230;28;20505;-64
2022/03/19 10:04:41;;;;;;;4.07;1.60;;;10.40;54.50;;;;;;5033880;28;20037;-63
2022/03/19 10:09:56;;;;;;;4.65;1.38;;;10.50;53.80;;;;;;5048580;28;20090;-65
2022/03/19 10:12:25;;;;;;;3.80;1.27;;;10.50;53.60;;;;;;5057428;28;20064;-64
2022/03/19 10:14:54;;;;;;;4.00;1.20;;;10.50;53.00;;;;;;5058768;28;20044;-63
2022/03/19 10:17:32;;;;;;;5.05;1.05;;;10.60;53.40;;;;;;5048047;28;20090;-65
2022/03/19 10:20:00;;;;;;;4.40;1.08;;;10.60;53.70;;;;;;5060197;28;20048;-64
2022/03/19 10:22:29;;;;;;;3.53;1.00;;;10.60;53.30;;;;;;5056624;28;20178;-66
2022/03/19 10:24:58;;;;;;;4.03;0.82;;;10.70;52.90;;;;;;5056390;28;20036;-66
2022/03/19 10:27:26;;;;;;;3.85;1.08;;;10.80;51.40;;;;;;5050878;28;20145;-63
2022/03/19 10:30:09;;;;;;;3.78;0.90;;;10.80;52.10;;;;;;5054317;28;20053;-64
2022/03/19 10:32:40;;;;;;;2.33;0.82;;;10.90;49.80;;;;;;5048144;28;20115;-65
2022/03/19 10:35:25;;;;;;;4.57;0.85;;;10.90;49.40;;;;;;5045483;28;21813;-63
2022/03/19 10:37:53;;;;;;;3.65;0.80;;;10.90;48.40;;;;;;5050493;28;20071;-65
2022/03/19 10:40:20;;;;;;;4.78;0.70;;;11.00;47.00;;;;;;5049333;28;20068;-65
2022/03/19 10:42:48;;;;;;;1.38;0.60;;;11.00;46.20;;;;;;5049807;28;20098;-64
2022/03/19 10:45:21;;;;;;;4.32;0.63;;;11.00;45.20;;;;;;5052609;28;20069;-65
2022/03/19 10:47:50;;;;;;;1.77;0.55;;;11.10;43.00;;;;;;5063767;28;20045;-65
2022/03/19 10:50:21;;;;;;;1.98;0.43;;;11.10;44.30;;;;;;5066186;28;20123;-65
2022/03/19 10:52:49;;;;;;;3.90;0.65;;;11.10;45.00;;;;;;5066814;28;20110;-65
2022/03/19 10:55:17;;;;;;;2.10;0.70;;;11.10;42.40;;;;;;5065056;28;20052;-63
2022/03/19 10:57:45;;;;;;;2.10;0.82;;;11.20;42.10;;;;;;5066533;28;20044;-65
2022/03/19 11:00:13;;;;;;;1.50;0.55;;;11.20;41.70;;;;;;5060922;28;20047;-65
2022/03/19 11:02:44;;;;;;;2.50;0.70;;;11.20;41.30;;;;;;5064790;28;20119;-64
2022/03/19 11:05:15;;;;;;;1.05;0.50;;;11.20;40.60;;;;;;5064458;28;20121;-63
2022/03/19 11:07:44;;;;;;;1.45;0.47;;;11.20;40.60;;;;;;5061833;28;20104;-64
2022/03/19 11:10:12;;;;;;;2.92;0.45;;;11.20;40.20;;;;;;5065593;28;20493;-64
2022/03/19 11:12:43;;;;;;;1.80;0.50;;;11.20;41.10;;;;;;5063657;28;20058;-65
2022/03/19 11:15:11;;;;;;;1.63;0.73;;;11.30;40.90;;;;;;5052315;28;20068;-64
2022/03/19 11:17:41;;;;;;;1.95;0.77;;;11.30;40.70;;;;;;5068633;28;20051;-63
2022/03/19 11:20:10;;;;;;;3.30;0.60;;;11.40;41.20;;;;;;5066613;28;20044;-67
2022/03/19 11:22:41;;;;;;;2.05;0.50;;;11.40;39.50;;;;;;5066548;28;20464;-63
2022/03/19 11:25:23;;;;;;;3.75;0.70;;;11.40;39.60;;;;;;5066260;28;20056;-65
2022/03/19 11:27:52;;;;;;;4.65;0.98;;;11.40;39.40;;;;;;5074893;28;20486;-64
2022/03/19 11:30:22;;;;;;;3.20;1.00;;;11.40;38.90;;;;;;5066781;28;20113;-66
2022/03/19 11:33:08;;;;;;;1.27;0.60;;;11.40;38.30;;;;;;5062664;28;20066;-63
2022/03/19 11:35:38;;;;;;;3.50;0.70;;;11.40;38.80;;;;;;5060164;28;20048;-63
2022/03/19 11:38:11;;;;;;;2.65;1.02;;;11.40;38.40;;;;;;5059864;28;20042;-65
2022/03/19 11:40:41;;;;;;;5.10;1.33;;;11.40;38.70;;;;;;5058925;28;20049;-66
2022/03/19 11:43:08;;;;;;;1.73;1.00;;;11.40;37.30;;;;;;5067364;28;20048;-64
2022/03/19 11:45:40;;;;;;;1.17;0.77;;;11.50;38.10;;;;;;5067194;28;20114;-65
2022/03/19 11:48:41;;;;;;;2.90;0.90;;;11.40;38.00;;;;;;5071597;28;20040;-66
2022/03/19 11:51:23;;;;;;;3.28;1.10;;;11.40;38.30;;;;;;5077817;28;20126;-65
2022/03/19 11:53:57;;;;;;;2.53;1.20;;;11.40;38.90;;;;;;5083727;28;20499;-64
2022/03/19 11:56:26;;;;;;;5.63;1.27;;;11.40;38.60;;;;;;5081356;28;20489;-63
2022/03/19 11:58:53;;;;;;;2.83;1.13;;;11.30;38.90;;;;;;5077801;28;20036;-66
2022/03/19 12:01:48;;;;;;;4.88;1.58;;;11.40;39.20;;;;;;5074858;28;20039;-64
2022/03/19 12:04:16;;;;;;;4.05;1.00;;;11.30;39.20;;;;;;5085774;28;20931;-65
2022/03/19 12:06:52;;;;;;;2.28;0.90;;;11.40;38.80;;;;;;5070923;28;20067;-65
2022/03/19 12:09:20;;;;;;;2.67;0.90;;;11.30;39.80;;;;;;5069261;28;20064;-65
2022/03/19 12:12:22;;;;;;;2.13;0.68;;;11.40;39.00;;;;;;5070851;28;20040;-64
2022/03/19 12:14:50;;;;;;;4.75;1.15;;;11.40;38.60;;;;;;5068388;28;20052;-63
2022/03/19 12:17:19;;;;;;;3.08;1.27;;;11.40;38.50;;;;;;5071640;28;20097;-65
2022/03/19 12:19:53;;;;;;;2.00;1.00;;;11.30;38.60;;;;;;5072950;28;20045;-65
2022/03/19 12:22:31;;;;;;;2.88;1.17;;;11.30;38.50;;;;;;5075422;28;20056;-62
2022/03/19 12:25:12;;;;;;;2.58;1.05;;;11.30;38.90;;;;;;5064061;28;20041;-64
2022/03/19 12:27:40;;;;;;;2.78;1.20;;;11.30;38.60;;;;;;5073401;28;20044;-64
2022/03/19 12:30:10;;;;;;;2.60;1.17;;;11.30;39.00;;;;;;5073814;28;20048;-64
2022/03/19 12:32:49;;;;;;;2.80;0.82;;;11.30;39.20;;;;;;5071411;28;20123;-64
2022/03/19 12:35:18;;;;;;;4.22;1.40;;;11.30;39.00;;;;;;5068256;28;20118;-64
2022/03/19 12:37:52;;;;;;;2.92;1.13;;;11.30;39.00;;;;;;5074016;28;20052;-65
2022/03/19 12:40:23;;;;;;;1.52;1.20;;;11.20;38.50;;;;;;5065851;28;20169;-64
2022/03/19 12:42:54;;;;;;;2.13;0.82;;;11.20;38.30;;;;;;5066184;28;20052;-65
2022/03/19 12:45:36;;;;;;;2.33;0.75;;;11.20;38.60;;;;;;5064144;28;20063;-66
2022/03/19 12:48:09;;;;;;;3.05;0.93;;;11.20;38.80;;;;;;5063937;28;20498;-66
2022/03/19 12:50:36;;;;;;;2.80;0.90;;;11.20;38.30;;;;;;5065248;28;20055;-65
2022/03/19 12:53:03;;;;;;;2.28;0.80;;;11.20;38.90;;;;;;5068230;28;20519;-65
2022/03/19 12:55:33;;;;;;;3.63;1.00;;;11.20;38.80;;;;;;5060305;28;20490;-64
2022/03/19 12:58:02;;;;;;;4.13;0.88;;;11.20;38.30;;;;;;5062460;28;20052;-64
2022/03/19 13:00:30;;;;;;;2.28;0.75;;;11.20;37.90;;;;;;5064959;28;20048;-65
2022/03/19 13:02:57;;;;;;;3.97;0.88;;;11.20;37.90;;;;;;5065734;28;20135;-64
2022/03/19 13:05:24;;;;;;;1.60;1.10;;;11.20;37.60;;;;;;5073311;28;20097;-64
2022/03/19 13:08:02;;;;;;;2.15;0.60;;;11.20;37.80;;;;;;5072370;28;20135;-65
2022/03/19 13:10:29;;;;;;;2.50;0.60;;;11.20;38.20;;;;;;5056102;28;20547;-66
2022/03/19 13:13:08;;;;;;;1.70;0.77;;;11.20;38.30;;;;;;5069588;28;20037;-64
2022/03/19 13:15:35;;;;;;;3.70;0.60;;;11.20;38.30;;;;;;5063047;28;20056;-66
2022/03/19 13:18:02;;;;;;;2.92;0.93;;;11.20;37.70;;;;;;5074067;28;20044;-65
2022/03/19 13:20:29;;;;;;;1.17;0.55;;;11.20;37.10;;;;;;5076323;28;20500;-65